Time;durP1;ratioP1;P1;durP2;ratioP2;P2;SDS_P1;SDS_P2;PMS_P1;PMS_P2;Temp;Humidity;BMP_temperature;BMP_pressure;BME280_temperature;BME280_humidity;BME280_pressure;Samples;Min_cycle;Max_cycle;Signal;HPM_P1;HPM_P2
2021/07/10 00:01:08;;;;;;;2.28;0.30;;;;;;;;;;5013839;28;20379;-67
2021/07/10 00:03:35;;;;;;;2.33;0.60;;;;;;;;;;5010335;28;20056;-67
2021/07/10 00:06:02;;;;;;;3.80;0.88;;;;;;;;;;5014059;28;20057;-66
2021/07/10 00:08:29;;;;;;;4.82;1.17;;;;;;;;;;5012703;28;20053;-66
2021/07/10 00:10:56;;;;;;;1.75;0.60;;;;;;;;;;5013070;28;20029;-68
2021/07/10 00:13:24;;;;;;;2.22;0.40;;;;;;;;;;5012381;28;20037;-68
2021/07/10 00:15:52;;;;;;;2.70;0.55;;;;;;;;;;5012810;28;20023;-68
2021/07/10 00:18:22;;;;;;;5.90;1.40;;;;;;;;;;5013691;28;20475;-68
2021/07/10 00:20:49;;;;;;;2.92;0.80;;;;;;;;;;5012192;28;20111;-67
2021/07/10 00:23:17;;;;;;;6.25;1.42;;;;;;;;;;4993755;28;20241;-68
2021/07/10 00:25:44;;;;;;;5.05;1.23;;;;;;;;;;4995489;28;20048;-68
2021/07/10 00:28:11;;;;;;;3.50;1.38;;;;;;;;;;5010229;28;20026;-68
2021/07/10 00:30:38;;;;;;;7.20;1.73;;;;;;;;;;5011649;28;20394;-68
2021/07/10 00:33:05;;;;;;;8.27;1.55;;;;;;;;;;5012040;28;20037;-68
2021/07/10 00:35:33;;;;;;;4.78;0.77;;;;;;;;;;5011984;28;20048;-69
2021/07/10 00:38:00;;;;;;;4.07;0.77;;;;;;;;;;5007270;28;20018;-68
2021/07/10 00:40:27;;;;;;;5.30;1.00;;;;;;;;;;5012687;28;20053;-69
2021/07/10 00:42:54;;;;;;;4.03;0.70;;;;;;;;;;4993979;28;20490;-68
2021/07/10 00:45:21;;;;;;;5.20;0.85;;;;;;;;;;4996129;28;20018;-69
2021/07/10 00:47:48;;;;;;;6.85;1.05;;;;;;;;;;4993841;28;20088;-68
2021/07/10 00:50:17;;;;;;;7.68;1.70;;;;;;;;;;5010866;28;20413;-69
2021/07/10 00:52:44;;;;;;;4.20;1.25;;;;;;;;;;5011935;28;20030;-68
2021/07/10 00:55:15;;;;;;;4.25;1.20;;;;;;;;;;5011841;28;20036;-68
2021/07/10 00:57:43;;;;;;;4.40;1.00;;;;;;;;;;5011563;28;21758;-68
2021/07/10 01:00:15;;;;;;;3.22;0.77;;;;;;;;;;4993623;28;20079;-68
2021/07/10 01:02:42;;;;;;;6.03;0.95;;;;;;;;;;5009736;28;20076;-68
2021/07/10 01:05:12;;;;;;;6.00;1.52;;;;;;;;;;4994182;28;20069;-68
2021/07/10 01:07:39;;;;;;;5.85;1.35;;;;;;;;;;5009968;28;20050;-68
2021/07/10 01:10:08;;;;;;;4.00;1.17;;;;;;;;;;5009279;28;20427;-68
2021/07/10 01:12:35;;;;;;;3.88;1.48;;;;;;;;;;4994125;28;20093;-67
2021/07/10 01:15:03;;;;;;;6.38;1.05;;;;;;;;;;4994613;28;20061;-68
2021/07/10 01:17:30;;;;;;;3.22;0.90;;;;;;;;;;5009833;28;20402;-68
2021/07/10 01:20:01;;;;;;;10.93;1.90;;;;;;;;;;5006317;28;20912;-68
2021/07/10 01:22:28;;;;;;;5.80;1.17;;;;;;;;;;5009549;28;20109;-69
2021/07/10 01:24:56;;;;;;;8.82;1.60;;;;;;;;;;5011070;28;20034;-69
2021/07/10 01:27:23;;;;;;;6.88;1.50;;;;;;;;;;5012077;28;20382;-68
2021/07/10 01:29:50;;;;;;;4.40;1.42;;;;;;;;;;5010823;28;20029;-68
2021/07/10 01:32:18;;;;;;;5.95;1.00;;;;;;;;;;5003585;28;20125;-68
2021/07/10 01:34:49;;;;;;;5.47;1.52;;;;;;;;;;5011792;28;20026;-68
2021/07/10 01:37:16;;;;;;;7.43;1.15;;;;;;;;;;5004452;28;20442;-69
2021/07/10 01:39:44;;;;;;;5.40;1.00;;;;;;;;;;5010984;28;20030;-68
2021/07/10 01:42:12;;;;;;;4.45;1.20;;;;;;;;;;5010346;28;20515;-68
2021/07/10 01:44:39;;;;;;;4.88;1.17;;;;;;;;;;4991601;28;20407;-67
2021/07/10 01:47:07;;;;;;;3.92;0.95;;;;;;;;;;5008404;28;20452;-68
2021/07/10 01:49:34;;;;;;;3.13;0.85;;;;;;;;;;5006142;28;20042;-68
2021/07/10 01:52:01;;;;;;;3.40;2.05;;;;;;;;;;5009020;28;20022;-68
2021/07/10 01:54:28;;;;;;;6.05;1.50;;;;;;;;;;5000946;28;20026;-68
2021/07/10 01:56:55;;;;;;;5.07;0.80;;;;;;;;;;5004573;28;20026;-69
2021/07/10 01:59:22;;;;;;;4.15;0.98;;;;;;;;;;5011089;28;20430;-68
2021/07/10 02:01:51;;;;;;;5.18;0.95;;;;;;;;;;5004202;28;20037;-68
2021/07/10 02:04:19;;;;;;;4.45;0.85;;;;;;;;;;5006627;28;20349;-68
2021/07/10 02:06:47;;;;;;;4.53;0.63;;;;;;;;;;5007896;28;20022;-69
2021/07/10 02:09:15;;;;;;;6.47;1.38;;;;;;;;;;5001308;28;20406;-68
2021/07/10 02:11:46;;;;;;;6.13;1.73;;;;;;;;;;5007289;28;20026;-68
2021/07/10 02:14:14;;;;;;;3.55;0.90;;;;;;;;;;5006756;28;20025;-68
2021/07/10 02:16:42;;;;;;;4.13;0.73;;;;;;;;;;5006862;28;20026;-68
2021/07/10 02:19:09;;;;;;;3.70;0.98;;;;;;;;;;5008591;28;20022;-68
2021/07/10 02:21:36;;;;;;;4.82;1.42;;;;;;;;;;4991371;28;20123;-68
2021/07/10 02:24:05;;;;;;;6.18;0.98;;;;;;;;;;5001656;28;20042;-67
2021/07/10 02:26:32;;;;;;;3.63;0.70;;;;;;;;;;5004057;28;20105;-67
2021/07/10 02:29:00;;;;;;;4.68;0.60;;;;;;;;;;5006820;28;20107;-68
2021/07/10 02:31:27;;;;;;;2.83;0.88;;;;;;;;;;5006274;28;20025;-68
2021/07/10 02:33:54;;;;;;;5.88;1.02;;;;;;;;;;4990634;28;20509;-68
2021/07/10 02:36:21;;;;;;;4.60;0.73;;;;;;;;;;4992683;28;20040;-68
2021/07/10 02:38:48;;;;;;;6.28;1.15;;;;;;;;;;5005540;28;20101;-68
2021/07/10 02:41:15;;;;;;;3.42;0.90;;;;;;;;;;5011437;28;20624;-68
2021/07/10 02:43:43;;;;;;;3.13;0.60;;;;;;;;;;5008607;28;20034;-68
2021/07/10 02:46:10;;;;;;;2.75;0.73;;;;;;;;;;5006143;28;20509;-68
2021/07/10 02:48:37;;;;;;;4.72;0.95;;;;;;;;;;5007120;28;20029;-68
2021/07/10 02:51:05;;;;;;;5.70;1.50;;;;;;;;;;4991503;28;20080;-67
2021/07/10 02:53:32;;;;;;;3.80;0.90;;;;;;;;;;5005944;28;20536;-67
2021/07/10 02:55:59;;;;;;;4.90;0.60;;;;;;;;;;5009779;28;20081;-68
2021/07/10 02:58:26;;;;;;;4.05;0.60;;;;;;;;;;5009434;28;20026;-65
2021/07/10 03:00:53;;;;;;;4.10;0.90;;;;;;;;;;5008293;28;20478;-67
2021/07/10 03:03:21;;;;;;;6.93;0.60;;;;;;;;;;5009226;28;20037;-67
2021/07/10 03:05:49;;;;;;;8.02;1.42;;;;;;;;;;5011007;28;20041;-67
2021/07/10 03:08:20;;;;;;;5.40;1.65;;;;;;;;;;5010653;28;20168;-67
2021/07/10 03:10:47;;;;;;;5.18;1.23;;;;;;;;;;5001260;28;20061;-67
2021/07/10 03:13:15;;;;;;;5.30;2.05;;;;;;;;;;5009472;28;20045;-68
2021/07/10 03:15:43;;;;;;;3.00;1.08;;;;;;;;;;5008913;28;20025;-68
2021/07/10 03:18:10;;;;;;;3.05;0.80;;;;;;;;;;4999251;28;20177;-68
2021/07/10 03:20:38;;;;;;;3.42;0.70;;;;;;;;;;5013468;28;20096;-69
2021/07/10 03:23:05;;;;;;;5.05;1.15;;;;;;;;;;5011173;28;20419;-69
2021/07/10 03:25:32;;;;;;;7.05;1.10;;;;;;;;;;4995001;28;20041;-69
2021/07/10 03:28:00;;;;;;;4.95;1.00;;;;;;;;;;5006528;28;20025;-68
2021/07/10 03:30:27;;;;;;;4.40;1.88;;;;;;;;;;5013178;28;20022;-69
2021/07/10 03:32:55;;;;;;;10.00;1.05;;;;;;;;;;5005250;28;20486;-68
2021/07/10 03:35:22;;;;;;;3.30;0.80;;;;;;;;;;5014635;28;20230;-68
2021/07/10 03:37:50;;;;;;;9.80;1.50;;;;;;;;;;4994858;28;20398;-69
2021/07/10 03:40:19;;;;;;;7.53;1.42;;;;;;;;;;5011225;28;20109;-69
2021/07/10 03:42:46;;;;;;;7.45;1.20;;;;;;;;;;4991395;28;20117;-69
2021/07/10 03:45:14;;;;;;;10.65;1.75;;;;;;;;;;5009114;28;20021;-68
2021/07/10 03:47:42;;;;;;;10.13;1.73;;;;;;;;;;5003071;28;20030;-68
2021/07/10 03:50:10;;;;;;;9.95;1.70;;;;;;;;;;4996932;28;20029;-68
2021/07/10 03:52:38;;;;;;;9.20;1.65;;;;;;;;;;5011276;28;20026;-68
2021/07/10 03:55:11;;;;;;;13.77;1.75;;;;;;;;;;5014668;28;20607;-68
2021/07/10 03:57:38;;;;;;;12.65;2.47;;;;;;;;;;5013212;28;20439;-68
2021/07/10 04:00:06;;;;;;;10.82;2.20;;;;;;;;;;5012670;28;20046;-68
2021/07/10 04:02:33;;;;;;;12.35;2.47;;;;;;;;;;5013054;28;20057;-68
2021/07/10 04:05:00;;;;;;;9.40;2.63;;;;;;;;;;5010317;28;20104;-69
2021/07/10 04:07:30;;;;;;;10.90;1.90;;;;;;;;;;5010830;28;20022;-68
2021/07/10 04:09:57;;;;;;;12.82;2.00;;;;;;;;;;5009157;28;20129;-68
2021/07/10 04:12:24;;;;;;;10.77;2.13;;;;;;;;;;5005983;28;20014;-68
2021/07/10 04:14:52;;;;;;;11.88;2.53;;;;;;;;;;5005432;28;20079;-67
2021/07/10 04:17:19;;;;;;;13.88;2.33;;;;;;;;;;5011831;28;20026;-69
2021/07/10 04:19:46;;;;;;;12.55;3.50;;;;;;;;;;5010221;28;20367;-68
2021/07/10 04:22:13;;;;;;;10.70;2.08;;;;;;;;;;5006039;28;20023;-70
2021/07/10 04:24:40;;;;;;;9.70;2.63;;;;;;;;;;5014437;28;20040;-69
2021/07/10 04:27:07;;;;;;;7.35;2.40;;;;;;;;;;5014340;28;20104;-69
2021/07/10 04:29:34;;;;;;;10.45;2.00;;;;;;;;;;5016313;28;20034;-69
2021/07/10 04:32:01;;;;;;;17.38;2.83;;;;;;;;;;5012803;28;20029;-69
2021/07/10 04:34:28;;;;;;;8.00;1.35;;;;;;;;;;5013313;28;20030;-69
2021/07/10 04:36:57;;;;;;;10.05;1.27;;;;;;;;;;5015242;28;20053;-69
2021/07/10 04:39:24;;;;;;;7.57;1.65;;;;;;;;;;4994114;28;20345;-68
2021/07/10 04:41:51;;;;;;;9.75;2.03;;;;;;;;;;4993836;28;20026;-69
2021/07/10 04:44:18;;;;;;;9.55;1.33;;;;;;;;;;5007253;28;20026;-68
2021/07/10 04:46:45;;;;;;;9.23;2.25;;;;;;;;;;4995252;28;20057;-69
2021/07/10 04:49:15;;;;;;;8.10;1.63;;;;;;;;;;4991858;28;20076;-68
2021/07/10 04:51:42;;;;;;;8.38;1.55;;;;;;;;;;5013266;28;20057;-68
2021/07/10 04:54:09;;;;;;;7.15;2.67;;;;;;;;;;5011537;28;20034;-69
2021/07/10 04:56:37;;;;;;;6.47;1.15;;;;;;;;;;5014226;28;20026;-69
2021/07/10 04:59:04;;;;;;;4.65;1.13;;;;;;;;;;5009621;28;20034;-69
2021/07/10 05:01:31;;;;;;;7.45;1.15;;;;;;;;;;4994351;28;20072;-69
2021/07/10 05:03:58;;;;;;;7.78;1.45;;;;;;;;;;4993698;28;20406;-69
2021/07/10 05:06:25;;;;;;;7.88;1.75;;;;;;;;;;4992009;28;20072;-70
2021/07/10 05:08:53;;;;;;;9.20;2.28;;;;;;;;;;5006544;28;20387;-70
2021/07/10 05:11:20;;;;;;;9.32;1.38;;;;;;;;;;5011150;28;20041;-70
2021/07/10 05:13:47;;;;;;;7.68;1.85;;;;;;;;;;4994698;28;20037;-68
2021/07/10 05:16:14;;;;;;;6.68;1.45;;;;;;;;;;5013111;28;20101;-68
2021/07/10 05:18:41;;;;;;;7.30;1.80;;;;;;;;;;4994652;28;20505;-69
2021/07/10 05:21:08;;;;;;;11.38;2.05;;;;;;;;;;5013055;28;20101;-68
2021/07/10 05:23:36;;;;;;;10.18;1.17;;;;;;;;;;5000966;28;20052;-69
2021/07/10 05:26:03;;;;;;;5.25;1.35;;;;;;;;;;5012993;28;20105;-68
2021/07/10 05:28:30;;;;;;;6.32;1.15;;;;;;;;;;5010540;28;20026;-69
2021/07/10 05:30:57;;;;;;;9.55;1.73;;;;;;;;;;5013002;28;20025;-69
2021/07/10 05:33:24;;;;;;;9.43;3.00;;;;;;;;;;5010411;28;20056;-68
2021/07/10 05:35:51;;;;;;;8.27;1.00;;;;;;;;;;5012800;28;20094;-68
2021/07/10 05:38:18;;;;;;;8.50;1.13;;;;;;;;;;4998287;28;20057;-68
2021/07/10 05:40:45;;;;;;;4.05;0.43;;;;;;;;;;5006882;28;20029;-69
2021/07/10 05:43:13;;;;;;;8.77;1.65;;;;;;;;;;5011268;28;20052;-69
2021/07/10 05:45:40;;;;;;;5.53;0.98;;;;;;;;;;5012759;28;20029;-69
2021/07/10 05:48:07;;;;;;;3.80;0.60;;;;;;;;;;5007829;28;20026;-68
2021/07/10 05:50:35;;;;;;;2.45;0.32;;;;;;;;;;5010842;28;20033;-68
2021/07/10 05:53:02;;;;;;;2.88;0.40;;;;;;;;;;5008660;28;20021;-68
2021/07/10 05:55:29;;;;;;;2.25;0.40;;;;;;;;;;5007289;28;20160;-70
2021/07/10 05:57:57;;;;;;;1.92;0.35;;;;;;;;;;5007676;28;20029;-69
2021/07/10 06:00:24;;;;;;;4.63;1.13;;;;;;;;;;4994659;28;20105;-69
2021/07/10 06:02:51;;;;;;;3.90;0.77;;;;;;;;;;5009368;28;20419;-69
2021/07/10 06:05:18;;;;;;;8.88;0.90;;;;;;;;;;5008596;28;20034;-69
2021/07/10 06:07:48;;;;;;;3.10;0.80;;;;;;;;;;5010871;28;20026;-69
2021/07/10 06:10:15;;;;;;;4.47;0.90;;;;;;;;;;5011991;28;20053;-68
2021/07/10 06:12:42;;;;;;;4.15;0.75;;;;;;;;;;5008589;28;20064;-69
2021/07/10 06:15:10;;;;;;;6.65;1.40;;;;;;;;;;5009106;28;20025;-68
2021/07/10 06:17:38;;;;;;;8.02;1.45;;;;;;;;;;5009936;28;20018;-68
2021/07/10 06:20:07;;;;;;;7.72;2.20;;;;;;;;;;5010700;28;20368;-69
2021/07/10 06:22:34;;;;;;;8.60;3.20;;;;;;;;;;5009080;28;20109;-68
2021/07/10 06:25:02;;;;;;;9.65;3.33;;;;;;;;;;5009479;28;20442;-68
2021/07/10 06:27:29;;;;;;;10.93;3.20;;;;;;;;;;5010183;28;20052;-68
2021/07/10 06:29:56;;;;;;;11.55;5.32;;;;;;;;;;5011474;28;20028;-68
2021/07/10 06:32:23;;;;;;;10.98;3.30;;;;;;;;;;5007153;28;20018;-68
2021/07/10 06:34:50;;;;;;;13.70;3.35;;;;;;;;;;5009802;28;20037;-68
2021/07/10 06:37:19;;;;;;;13.20;2.47;;;;;;;;;;5008549;28;20529;-68
2021/07/10 06:39:47;;;;;;;9.68;2.10;;;;;;;;;;4992570;28;20109;-67
2021/07/10 06:42:14;;;;;;;14.65;3.08;;;;;;;;;;5010163;28;20386;-67
2021/07/10 06:44:44;;;;;;;16.63;2.60;;;;;;;;;;5009954;28;20038;-67
2021/07/10 06:47:11;;;;;;;13.63;2.28;;;;;;;;;;4996995;28;20049;-68
2021/07/10 06:49:38;;;;;;;10.93;2.80;;;;;;;;;;5016751;28;20088;-68
2021/07/10 06:52:06;;;;;;;13.32;2.60;;;;;;;;;;5001439;28;20040;-67
2021/07/10 06:54:33;;;;;;;17.02;2.22;;;;;;;;;;5010843;28;20427;-68
2021/07/10 06:57:00;;;;;;;11.80;1.60;;;;;;;;;;4997553;28;20061;-67
2021/07/10 06:59:27;;;;;;;8.73;2.28;;;;;;;;;;5009033;28;20018;-67
2021/07/10 07:01:54;;;;;;;12.30;2.15;;;;;;;;;;5012715;28;20113;-67
2021/07/10 07:04:21;;;;;;;12.50;2.17;;;;;;;;;;4994178;28;20085;-68
2021/07/10 07:06:48;;;;;;;11.13;2.13;;;;;;;;;;5012260;28;20036;-69
2021/07/10 07:09:16;;;;;;;14.85;2.38;;;;;;;;;;4998174;28;20046;-68
2021/07/10 07:11:43;;;;;;;10.23;2.05;;;;;;;;;;5003861;28;20121;-68
2021/07/10 07:14:10;;;;;;;7.97;1.55;;;;;;;;;;5012597;28;20033;-68
2021/07/10 07:16:37;;;;;;;10.13;3.28;;;;;;;;;;5011232;28;20092;-68
2021/07/10 07:19:05;;;;;;;10.55;3.03;;;;;;;;;;5010760;28;20030;-68
2021/07/10 07:21:32;;;;;;;13.52;3.33;;;;;;;;;;5013947;28;20025;-68
2021/07/10 07:23:59;;;;;;;9.50;1.80;;;;;;;;;;5000098;28;20045;-68
2021/07/10 07:26:26;;;;;;;11.52;3.03;;;;;;;;;;5014774;28;21083;-68
2021/07/10 07:28:53;;;;;;;11.05;2.75;;;;;;;;;;5008810;28;20087;-68
2021/07/10 07:31:21;;;;;;;8.57;2.50;;;;;;;;;;5003683;28;20025;-68
2021/07/10 07:33:48;;;;;;;8.63;2.70;;;;;;;;;;5012397;28;20112;-68
2021/07/10 07:36:15;;;;;;;11.05;2.58;;;;;;;;;;5014741;28;20483;-68
2021/07/10 07:38:42;;;;;;;7.82;2.13;;;;;;;;;;5012704;28;20491;-68
2021/07/10 07:41:10;;;;;;;9.38;2.60;;;;;;;;;;4996255;28;20479;-67
2021/07/10 07:43:37;;;;;;;8.07;2.20;;;;;;;;;;4989189;28;20076;-69
2021/07/10 07:46:04;;;;;;;14.40;2.33;;;;;;;;;;5012339;28;20058;-68
2021/07/10 07:48:31;;;;;;;11.20;3.08;;;;;;;;;;5012517;28;20479;-68
2021/07/10 07:50:58;;;;;;;9.25;2.20;;;;;;;;;;5012392;28;20563;-68
2021/07/10 07:53:25;;;;;;;8.45;2.67;;;;;;;;;;5012517;28;20061;-68
2021/07/10 07:55:53;;;;;;;17.10;3.63;;;;;;;;;;5013543;28;20110;-68
2021/07/10 07:58:20;;;;;;;11.77;4.38;;;;;;;;;;5012496;28;20033;-69
2021/07/10 08:00:47;;;;;;;13.00;4.47;;;;;;;;;;5009851;28;20018;-68
2021/07/10 08:03:14;;;;;;;13.52;3.42;;;;;;;;;;5011881;28;20421;-68
2021/07/10 08:05:41;;;;;;;13.27;4.05;;;;;;;;;;4995880;28;20025;-68
2021/07/10 08:08:09;;;;;;;15.45;4.05;;;;;;;;;;5010110;28;20494;-69
2021/07/10 08:10:36;;;;;;;13.27;3.97;;;;;;;;;;5014288;28;20058;-69
2021/07/10 08:13:03;;;;;;;8.65;3.70;;;;;;;;;;4994761;28;20057;-68
2021/07/10 08:15:30;;;;;;;9.90;3.75;;;;;;;;;;5016713;28;20030;-68
2021/07/10 08:17:57;;;;;;;12.02;4.07;;;;;;;;;;5005148;28;20546;-68
2021/07/10 08:20:25;;;;;;;10.63;3.92;;;;;;;;;;5009325;28;20490;-68
2021/07/10 08:22:52;;;;;;;13.25;3.85;;;;;;;;;;5014690;28;20440;-69
2021/07/10 08:25:20;;;;;;;8.55;3.58;;;;;;;;;;5022194;28;20046;-69
2021/07/10 08:27:48;;;;;;;11.55;3.92;;;;;;;;;;5032900;28;20033;-69
2021/07/10 08:30:15;;;;;;;11.45;4.82;;;;;;;;;;5030704;28;20462;-69
2021/07/10 08:32:44;;;;;;;7.68;2.80;;;;;;;;;;5031325;28;20037;-69
2021/07/10 08:35:12;;;;;;;8.85;3.53;;;;;;;;;;5015707;28;20072;-68
2021/07/10 08:37:39;;;;;;;9.95;3.50;;;;;;;;;;4993317;28;20502;-69
2021/07/10 08:40:07;;;;;;;8.27;3.10;;;;;;;;;;5006636;28;20064;-69
2021/07/10 08:42:34;;;;;;;11.23;4.63;;;;;;;;;;5010022;28;20026;-68
2021/07/10 08:45:04;;;;;;;9.52;4.57;;;;;;;;;;5031901;28;20477;-69
2021/07/10 08:47:34;;;;;;;15.35;5.40;;;;;;;;;;4983122;28;20487;-69
2021/07/10 08:50:01;;;;;;;10.40;4.15;;;;;;;;;;5020184;28;20061;-68
2021/07/10 08:52:28;;;;;;;11.57;4.38;;;;;;;;;;5007241;28;20030;-69
2021/07/10 08:54:55;;;;;;;10.52;3.78;;;;;;;;;;4996189;28;20053;-69
2021/07/10 08:57:23;;;;;;;8.80;3.17;;;;;;;;;;5007528;28;20448;-69
2021/07/10 08:59:50;;;;;;;9.35;4.05;;;;;;;;;;5033305;28;20087;-70
2021/07/10 09:02:17;;;;;;;10.77;5.28;;;;;;;;;;5032249;28;20025;-70
2021/07/10 09:04:44;;;;;;;10.60;3.72;;;;;;;;;;5023309;28;20041;-69
2021/07/10 09:07:11;;;;;;;10.23;4.10;;;;;;;;;;5026018;28;20029;-70
2021/07/10 09:09:42;;;;;;;7.55;3.88;;;;;;;;;;5032307;28;20057;-69
2021/07/10 09:12:10;;;;;;;6.05;3.40;;;;;;;;;;5014884;28;20037;-69
2021/07/10 09:14:37;;;;;;;8.27;3.72;;;;;;;;;;5017190;28;20028;-69
2021/07/10 09:17:17;;;;;;;6.30;3.60;;;;;;;;;;5031750;28;20028;-69
2021/07/10 09:19:45;;;;;;;7.60;4.28;;;;;;;;;;5028109;28;20021;-69
2021/07/10 09:22:12;;;;;;;7.30;4.10;;;;;;;;;;5006427;28;20029;-69
2021/07/10 09:24:42;;;;;;;5.50;3.42;;;;;;;;;;5029060;28;20032;-70
2021/07/10 09:27:10;;;;;;;8.30;3.40;;;;;;;;;;4999760;28;20494;-70
2021/07/10 09:29:39;;;;;;;13.25;3.60;;;;;;;;;;5026578;28;20045;-69
2021/07/10 09:32:08;;;;;;;8.27;4.10;;;;;;;;;;4998423;28;20103;-69
2021/07/10 09:34:41;;;;;;;6.13;3.15;;;;;;;;;;5013665;28;20033;-69
2021/07/10 09:37:16;;;;;;;6.78;3.08;;;;;;;;;;5007845;28;20041;-69
2021/07/10 09:39:44;;;;;;;5.45;3.78;;;;;;;;;;5030078;28;20025;-69
2021/07/10 09:42:15;;;;;;;7.40;3.60;;;;;;;;;;5015800;28;20061;-69
2021/07/10 09:44:55;;;;;;;8.30;4.25;;;;;;;;;;5021634;28;20056;-69
2021/07/10 09:47:41;;;;;;;5.20;3.10;;;;;;;;;;5008472;28;20037;-69
2021/07/10 09:50:09;;;;;;;6.50;3.17;;;;;;;;;;5008850;28;20045;-69
2021/07/10 09:55:40;;;;;;;12.88;5.15;;;;;;;;;;5009233;28;20505;-69
2021/07/10 09:58:07;;;;;;;16.75;6.07;;;;;;;;;;5033207;28;20108;-70
2021/07/10 10:00:34;;;;;;;14.10;4.40;;;;;;;;;;5015950;28;20099;-69
2021/07/10 10:03:01;;;;;;;6.38;3.08;;;;;;;;;;5014605;28;20034;-69
2021/07/10 10:05:30;;;;;;;6.03;2.80;;;;;;;;;;5013061;28;20493;-68
2021/07/10 10:10:45;;;;;;;6.72;2.65;;;;;;;;;;5025522;28;20059;-69
2021/07/10 10:13:13;;;;;;;3.58;2.30;;;;;;;;;;5026843;28;20022;-69
2021/07/10 10:15:40;;;;;;;4.90;2.08;;;;;;;;;;5033908;28;20025;-69
2021/07/10 10:18:08;;;;;;;5.40;2.83;;;;;;;;;;5015796;28;20029;-69
2021/07/10 10:20:36;;;;;;;5.63;3.45;;;;;;;;;;5013973;28;20045;-70
2021/07/10 10:23:04;;;;;;;5.43;3.63;;;;;;;;;;4999279;28;20033;-69
2021/07/10 10:25:32;;;;;;;6.72;3.05;;;;;;;;;;5033166;28;20036;-69
2021/07/10 10:27:59;;;;;;;6.80;4.18;;;;;;;;;;5023057;28;20026;-68
2021/07/10 10:30:27;;;;;;;7.82;4.15;;;;;;;;;;5015049;28;20041;-69
2021/07/10 10:32:54;;;;;;;6.43;3.22;;;;;;;;;;5015237;28;20026;-69
2021/07/10 10:35:21;;;;;;;7.80;5.28;;;;;;;;;;5016137;28;20104;-68
2021/07/10 10:37:48;;;;;;;7.13;3.40;;;;;;;;;;5015556;28;20021;-69
2021/07/10 10:40:17;;;;;;;4.88;2.25;;;;;;;;;;5007290;28;20026;-68
2021/07/10 10:42:45;;;;;;;2.97;1.50;;;;;;;;;;5012970;28;20072;-69
2021/07/10 10:45:13;;;;;;;4.18;1.60;;;;;;;;;;5013925;28;20091;-69
2021/07/10 10:47:41;;;;;;;3.70;2.08;;;;;;;;;;5031681;28;20036;-69
2021/07/10 10:50:26;;;;;;;4.05;1.70;;;;;;;;;;5013400;28;20029;-69
2021/07/10 10:52:56;;;;;;;3.97;1.58;;;;;;;;;;5014020;28;20072;-68
2021/07/10 10:55:29;;;;;;;2.92;1.27;;;;;;;;;;5016197;28;20030;-68
2021/07/10 10:57:58;;;;;;;4.32;2.05;;;;;;;;;;5014579;28;22118;-70
2021/07/10 11:00:25;;;;;;;4.00;1.55;;;;;;;;;;5032080;28;20101;-69
2021/07/10 11:03:05;;;;;;;3.60;1.50;;;;;;;;;;5014436;28;20038;-69
2021/07/10 11:05:33;;;;;;;4.38;2.10;;;;;;;;;;5014663;28;20038;-69
2021/07/10 11:08:21;;;;;;;4.00;1.48;;;;;;;;;;5014093;28;20413;-68
2021/07/10 11:10:56;;;;;;;7.13;1.70;;;;;;;;;;5030599;28;20018;-68
2021/07/10 11:13:30;;;;;;;7.30;1.95;;;;;;;;;;5006022;28;20048;-69
2021/07/10 11:16:10;;;;;;;5.88;1.58;;;;;;;;;;5014383;28;20038;-69
2021/07/10 11:18:50;;;;;;;8.13;2.00;;;;;;;;;;5005166;28;20360;-69
2021/07/10 11:21:37;;;;;;;3.65;1.77;;;;;;;;;;5031633;28;20024;-69
2021/07/10 11:26:44;;;;;;;3.03;1.63;;;;;;;;;;5031850;28;20033;-71
2021/07/10 11:29:19;;;;;;;6.30;2.45;;;;;;;;;;5011338;28;20082;-69
2021/07/10 11:31:46;;;;;;;6.47;2.85;;;;;;;;;;5019192;28;20026;-71
2021/07/10 11:34:17;;;;;;;3.28;1.80;;;;;;;;;;5020683;28;20391;-73
2021/07/10 11:36:56;;;;;;;3.60;1.48;;;;;;;;;;5012617;28;20509;-70
2021/07/10 11:39:44;;;;;;;4.05;1.90;;;;;;;;;;5015235;28;20071;-70
2021/07/10 11:42:25;;;;;;;7.28;2.38;;;;;;;;;;5027792;28;20101;-68
2021/07/10 11:45:04;;;;;;;10.90;2.30;;;;;;;;;;5033381;28;20056;-69
2021/07/10 11:47:32;;;;;;;8.77;1.80;;;;;;;;;;5025988;28;20382;-69
2021/07/10 11:50:00;;;;;;;10.98;1.65;;;;;;;;;;5032077;28;20492;-69
2021/07/10 11:52:27;;;;;;;9.68;2.70;;;;;;;;;;5015037;28;20060;-68
2021/07/10 11:54:56;;;;;;;10.07;1.52;;;;;;;;;;5032811;28;20026;-67
2021/07/10 11:57:24;;;;;;;10.27;1.52;;;;;;;;;;5014948;28;20176;-68
2021/07/10 11:59:51;;;;;;;14.90;3.55;;;;;;;;;;5014198;28;20065;-68
2021/07/10 12:02:18;;;;;;;13.38;3.22;;;;;;;;;;5012585;28;20030;-70
2021/07/10 12:05:01;;;;;;;11.63;2.75;;;;;;;;;;5018861;28;20041;-69
2021/07/10 12:07:29;;;;;;;5.28;1.67;;;;;;;;;;5008953;28;20034;-68
2021/07/10 12:09:56;;;;;;;8.25;2.05;;;;;;;;;;5014601;28;20053;-67
2021/07/10 12:12:23;;;;;;;5.38;1.35;;;;;;;;;;5022600;28;20168;-67
2021/07/10 12:14:57;;;;;;;7.57;1.88;;;;;;;;;;5008952;28;20544;-68
2021/07/10 12:17:26;;;;;;;8.25;1.92;;;;;;;;;;5028107;28;20022;-67
2021/07/10 12:19:53;;;;;;;5.85;2.03;;;;;;;;;;5014310;28;20044;-68
2021/07/10 12:22:22;;;;;;;3.95;1.60;;;;;;;;;;5013779;28;20648;-68
2021/07/10 12:24:49;;;;;;;4.70;1.67;;;;;;;;;;5014253;28;20055;-68
2021/07/10 12:27:17;;;;;;;5.20;1.77;;;;;;;;;;5010580;28;20625;-69
2021/07/10 12:29:51;;;;;;;6.47;1.85;;;;;;;;;;5000850;28;20079;-68
2021/07/10 12:32:19;;;;;;;7.35;1.90;;;;;;;;;;5008380;28;20034;-69
2021/07/10 12:34:47;;;;;;;4.28;1.65;;;;;;;;;;4997212;28;20041;-69
2021/07/10 12:37:34;;;;;;;4.80;2.20;;;;;;;;;;5013247;28;20053;-69
2021/07/10 12:40:05;;;;;;;6.53;1.50;;;;;;;;;;5001392;28;20172;-68
2021/07/10 12:42:32;;;;;;;6.40;1.80;;;;;;;;;;5011862;28;20032;-69
2021/07/10 12:45:00;;;;;;;5.80;1.90;;;;;;;;;;5010334;28;20037;-69
2021/07/10 12:47:28;;;;;;;4.13;1.75;;;;;;;;;;5032309;28;20537;-69
2021/07/10 12:49:57;;;;;;;4.97;2.15;;;;;;;;;;5013455;28;20033;-69
2021/07/10 12:52:24;;;;;;;6.70;2.30;;;;;;;;;;5013976;28;20107;-70
2021/07/10 12:54:53;;;;;;;3.92;2.90;;;;;;;;;;5020669;28;20471;-69
2021/07/10 12:57:27;;;;;;;5.25;3.28;;;;;;;;;;5012726;28;20034;-69
2021/07/10 12:59:54;;;;;;;;;;;;;;;;;;5011703;28;20040;-69
2021/07/10 13:02:22;;;;;;;5.93;2.50;;;;;;;;;;5018585;28;19955;-69
2021/07/10 13:04:49;;;;;;;6.60;2.60;;;;;;;;;;5021014;28;20614;-68
2021/07/10 13:07:29;;;;;;;6.10;2.92;;;;;;;;;;5010242;28;20041;-69
2021/07/10 13:09:57;;;;;;;5.00;2.88;;;;;;;;;;4934847;28;2782787;-69
2021/07/10 13:12:40;;;;;;;6.18;2.40;;;;;;;;;;5012152;28;20021;-69
2021/07/10 13:15:07;;;;;;;6.78;3.00;;;;;;;;;;5013323;28;20037;-69
2021/07/10 13:17:35;;;;;;;4.90;3.38;;;;;;;;;;5020090;28;20026;-69
2021/07/10 13:20:02;;;;;;;6.78;2.35;;;;;;;;;;5029571;28;20022;-70
2021/07/10 13:22:45;;;;;;;8.30;2.22;;;;;;;;;;5033042;28;20045;-69
2021/07/10 13:25:12;;;;;;;6.50;2.55;;;;;;;;;;5033102;28;20052;-68
2021/07/10 13:27:39;;;;;;;6.63;2.50;;;;;;;;;;5031963;28;20049;-69
2021/07/10 13:30:13;;;;;;;7.00;2.60;;;;;;;;;;5016184;28;20133;-68
2021/07/10 13:32:40;;;;;;;9.05;2.88;;;;;;;;;;5029623;28;20053;-69
2021/07/10 13:35:10;;;;;;;7.00;3.25;;;;;;;;;;5018575;28;20434;-69
2021/07/10 13:37:38;;;;;;;5.13;2.72;;;;;;;;;;5024013;28;20112;-69
2021/07/10 13:40:22;;;;;;;8.50;3.30;;;;;;;;;;5028212;28;20030;-70
2021/07/10 13:43:00;;;;;;;6.05;3.80;;;;;;;;;;5012108;28;20100;-69
2021/07/10 13:45:28;;;;;;;4.28;2.88;;;;;;;;;;5011118;28;20041;-69
2021/07/10 13:48:11;;;;;;;6.30;3.08;;;;;;;;;;5031263;28;20017;-69
2021/07/10 13:50:39;;;;;;;4.43;2.78;;;;;;;;;;5029885;28;20026;-69
2021/07/10 13:53:17;;;;;;;7.32;2.78;;;;;;;;;;5031992;28;20112;-69
2021/07/10 13:55:47;;;;;;;9.70;2.45;;;;;;;;;;5032389;28;20105;-70
2021/07/10 13:58:27;;;;;;;6.60;2.70;;;;;;;;;;5030054;28;20026;-70
2021/07/10 14:00:55;;;;;;;8.23;2.70;;;;;;;;;;5026969;28;20083;-70
2021/07/10 14:03:22;;;;;;;7.30;2.33;;;;;;;;;;5028817;28;20091;-69
2021/07/10 14:05:49;;;;;;;6.82;2.63;;;;;;;;;;5026572;28;20425;-69
2021/07/10 14:08:21;;;;;;;6.95;2.28;;;;;;;;;;5032094;28;20041;-69
2021/07/10 14:10:49;;;;;;;9.40;2.75;;;;;;;;;;5031671;28;20026;-69
2021/07/10 14:13:20;;;;;;;6.82;2.20;;;;;;;;;;5030838;28;20095;-68
2021/07/10 14:15:49;;;;;;;12.90;3.00;;;;;;;;;;5029345;28;20040;-69
2021/07/10 14:18:16;;;;;;;14.82;2.60;;;;;;;;;;5028975;28;20555;-69
2021/07/10 14:20:46;;;;;;;10.55;2.97;;;;;;;;;;5027270;28;20064;-69
2021/07/10 14:23:14;;;;;;;16.30;3.78;;;;;;;;;;5017506;28;20467;-69
2021/07/10 14:25:41;;;;;;;14.40;3.28;;;;;;;;;;5006904;28;20502;-69
2021/07/10 14:28:08;;;;;;;16.48;2.88;;;;;;;;;;5022712;28;20024;-69
2021/07/10 14:30:36;;;;;;;9.52;2.83;;;;;;;;;;5015757;28;20083;-69
2021/07/10 14:33:03;;;;;;;10.38;2.05;;;;;;;;;;5031710;28;20053;-69
2021/07/10 14:35:31;;;;;;;9.50;1.58;;;;;;;;;;4992848;28;20018;-69
2021/07/10 14:37:59;;;;;;;7.70;1.80;;;;;;;;;;5023764;28;20029;-69
2021/07/10 14:40:28;;;;;;;7.93;2.13;;;;;;;;;;5022503;28;20025;-69
2021/07/10 14:42:55;;;;;;;5.40;1.70;;;;;;;;;;5013822;28;20458;-69
2021/07/10 14:45:23;;;;;;;8.65;2.20;;;;;;;;;;5010095;28;20033;-69
2021/07/10 14:47:52;;;;;;;5.93;1.27;;;;;;;;;;5018663;28;20023;-69
2021/07/10 14:50:19;;;;;;;8.60;1.58;;;;;;;;;;5014029;28;20108;-69
2021/07/10 14:52:49;;;;;;;13.57;2.13;;;;;;;;;;5013083;28;20037;-69
2021/07/10 14:55:18;;;;;;;3.22;1.27;;;;;;;;;;5023061;28;20036;-69
2021/07/10 14:57:45;;;;;;;11.10;2.17;;;;;;;;;;5021414;28;20025;-69